KGKY

Arlington Municipal Airport

Arlington, Texas, USA
METAR KGKY 240153Z AUTO 12006KT 10SM CLR 28/20 A2999 RMK AO2 SLP146 T02780200
Observed Flight Rules
May-24 @ 01:53 UTC (19 minutes ago) Visual Flight Rules
Wind Visibility Clouds
120° at 6 knots 10 miles
  • Clear skies
Temperatures Readings
Current 28°C / 82°F
Dewpoint 20°C / 68°F
Humidity 62%
Altimeter 29.99" Hg
Pressure 1014.6 hPa
Elevation 192
METAR KGKY 240153Z AUTO 12006KT 10SM CLR 28/20 A2999 RMK AO2 SLP146 T02780200
Observed Flight Rules
May-24 @ 01:53 UTC
(19 minutes ago)
VFR
Wind Visibility
120° at 6 knots 10 miles
Clouds
  • Clear skies
Temperature Dewpoint
28°C / 82°F 20°C / 68°F
Humidity Altimeter Pressure
62% 29.99" Hg 1014.6 hPa